Accueil
METAR-TAF:

METAR-TAF

Aéroports :

Aéroport de Sion

Sion, Suisse

latitude: 46-13N, longitude: 007-20E, altitude: 482 m

Observation

Le bulletin a été fait il y a 30 minutes, à 03:20 UTC
Vent 6 kt de est/nord-est
Température 19°C
Humidité 78%
Pression 1018 hPa
Visibilité 10 km ou plus
Nuages fragmentés à une hauteur de 13000 ft

METAR: LSGS 190320Z AUTO 07006KT 9999 BKN130 19/15 Q1018

Heure: 05:50 (03:50 UTC)

Prévision

Le bulletin a été fait il y a 1 heure et 25 minutes, à 02:25 UTC
Prévision valable du 19 à 03 UTC au 19 à 12 UTC
Vent 5 kt de est
Visibilité 10 km ou plus
Nuages épars à une hauteur de 15000 ft

TAF: LSGS 190225Z 1903/1912 08005KT 9999 SCT150

Observations et prévisions météorologiques de plus de 4000 aéroports (messages METAR et TAF).

Les stations disponibles sont représentées par des disques jaunes et rouges sur la carte.

Passer la souris dessus pour voir le nom de la station.

Cliquer dessus pour voir les observations et prévisions météorologiques.

Pour changer de carte: cliquez sur les boutons verts avec une croix noire pour zoomer, sur le bouton vert avec un tiret pour effectuer un zoom arrière, ou sur les flèches vertes pour les cartes adjacentes.


METAR-TAF: